Time;durP1;ratioP1;P1;durP2;ratioP2;P2;SDS_P1;SDS_P2;PMS_P1;PMS_P2;Temp;Humidity;BMP_temperature;BMP_pressure;BME280_temperature;BME280_humidity;BME280_pressure;Samples;Min_cycle;Max_cycle;Signal;HPM_P1;HPM_P2
2021/12/29 00:01:29;;;;;;;;;2.67;2.67;;;;;;;;5041706;28;9456;-82
2021/12/29 00:03:56;;;;;;;;;6.33;2.67;;;;;;;;5039166;28;10134;-83
2021/12/29 00:06:23;;;;;;;;;7.00;3.67;;;;;;;;5032617;28;9480;-82
2021/12/29 00:08:51;;;;;;;;;4.00;4.00;;;;;;;;5035087;28;9317;-83
2021/12/29 00:11:18;;;;;;;;;6.67;6.00;;;;;;;;5039816;28;9331;-82
2021/12/29 00:13:46;;;;;;;;;3.00;3.00;;;;;;;;5044481;28;9206;-82
2021/12/29 00:16:13;;;;;;;;;4.00;3.00;;;;;;;;5026571;28;9099;-82
2021/12/29 00:18:42;;;;;;;;;3.00;3.00;;;;;;;;5035994;28;9109;-83
2021/12/29 00:21:10;;;;;;;;;1.00;1.00;;;;;;;;5040073;28;9212;-82
2021/12/29 00:23:37;;;;;;;;;6.33;4.00;;;;;;;;5031106;28;8969;-83
2021/12/29 00:26:05;;;;;;;;;5.33;2.67;;;;;;;;5041978;28;9026;-82
2021/12/29 00:28:32;;;;;;;;;2.00;2.00;;;;;;;;5042551;28;9210;-82
2021/12/29 00:31:00;;;;;;;;;8.67;3.33;;;;;;;;5036391;28;9042;-82
2021/12/29 00:33:27;;;;;;;;;2.33;2.33;;;;;;;;5038280;28;9108;-83
2021/12/29 00:35:56;;;;;;;;;6.00;2.00;;;;;;;;5038918;28;9889;-82
2021/12/29 00:38:24;;;;;;;;;4.00;2.33;;;;;;;;5041986;28;9116;-82
2021/12/29 00:40:51;;;;;;;;;11.33;7.00;;;;;;;;5043318;28;9285;-83
2021/12/29 00:43:19;;;;;;;;;2.00;2.00;;;;;;;;5042879;28;9283;-83
2021/12/29 00:45:47;;;;;;;;;7.67;3.00;;;;;;;;5037973;28;9634;-82
2021/12/29 00:48:15;;;;;;;;;4.00;2.33;;;;;;;;5043806;28;9349;-82
2021/12/29 00:50:45;;;;;;;;;6.00;3.00;;;;;;;;5041486;28;9981;-81
2021/12/29 00:53:16;;;;;;;;;6.67;2.33;;;;;;;;5042698;28;9253;-81
2021/12/29 00:55:43;;;;;;;;;2.00;2.00;;;;;;;;5038267;28;9142;-81
2021/12/29 00:58:10;;;;;;;;;6.00;4.00;;;;;;;;5044277;28;9217;-82
2021/12/29 01:00:40;;;;;;;;;11.00;4.00;;;;;;;;5044806;28;9777;-82
2021/12/29 01:03:09;;;;;;;;;3.67;1.67;;;;;;;;5044713;28;9122;-83
2021/12/29 01:05:36;;;;;;;;;2.67;2.67;;;;;;;;5039212;28;9138;-82
2021/12/29 01:08:04;;;;;;;;;5.33;2.00;;;;;;;;5045935;28;9209;-81
2021/12/29 01:10:33;;;;;;;;;3.67;1.67;;;;;;;;5047160;28;9270;-81
2021/12/29 01:13:02;;;;;;;;;3.67;1.67;;;;;;;;5049049;28;9044;-83
2021/12/29 01:15:35;;;;;;;;;6.67;3.33;;;;;;;;5043956;28;9145;-82
2021/12/29 01:18:05;;;;;;;;;8.67;5.67;;;;;;;;5050614;28;9223;-82
2021/12/29 01:20:34;;;;;;;;;1.00;1.00;;;;;;;;5049539;28;9185;-82
2021/12/29 01:23:01;;;;;;;;;6.00;1.67;;;;;;;;5047823;28;9160;-81
2021/12/29 01:25:30;;;;;;;;;3.00;3.00;;;;;;;;5042827;28;9321;-82
2021/12/29 01:27:58;;;;;;;;;4.33;2.33;;;;;;;;5046422;28;9271;-82
2021/12/29 01:30:26;;;;;;;;;5.33;5.33;;;;;;;;5047282;28;9050;-82
2021/12/29 01:32:53;;;;;;;;;3.00;1.67;;;;;;;;5046546;28;10117;-82
2021/12/29 01:35:20;;;;;;;;;4.00;2.00;;;;;;;;5042687;28;9183;-79
2021/12/29 01:37:48;;;;;;;;;4.00;4.00;;;;;;;;5049239;28;9122;-82
2021/12/29 01:40:18;;;;;;;;;5.33;3.33;;;;;;;;5043835;28;9314;-82
2021/12/29 01:42:45;;;;;;;;;6.33;4.00;;;;;;;;5043679;28;9324;-82
2021/12/29 01:45:15;;;;;;;;;6.33;3.00;;;;;;;;5050054;28;9256;-82
2021/12/29 01:47:42;;;;;;;;;10.00;4.67;;;;;;;;5038434;28;9294;-82
2021/12/29 01:50:11;;;;;;;;;3.00;3.00;;;;;;;;5039297;28;9260;-82
2021/12/29 01:52:40;;;;;;;;;6.00;3.00;;;;;;;;5048684;28;9095;-82
2021/12/29 01:55:10;;;;;;;;;4.33;3.33;;;;;;;;5042921;28;9239;-82
2021/12/29 01:57:38;;;;;;;;;7.67;4.00;;;;;;;;5043960;28;9159;-82
2021/12/29 02:00:08;;;;;;;;;8.67;3.67;;;;;;;;5044822;28;9393;-84
2021/12/29 02:02:37;;;;;;;;;3.67;3.00;;;;;;;;5050666;28;10244;-82
2021/12/29 02:05:05;;;;;;;;;6.33;2.00;;;;;;;;5039525;28;9267;-83
2021/12/29 02:07:33;;;;;;;;;6.67;5.33;;;;;;;;5048382;28;9101;-82
2021/12/29 02:10:00;;;;;;;;;6.67;2.00;;;;;;;;5046689;28;9173;-81
2021/12/29 02:12:28;;;;;;;;;4.00;2.67;;;;;;;;5042189;28;9117;-80
2021/12/29 02:14:55;;;;;;;;;9.33;3.00;;;;;;;;5044273;28;9220;-81
2021/12/29 02:17:23;;;;;;;;;6.00;4.00;;;;;;;;5045495;28;9151;-81
2021/12/29 02:19:52;;;;;;;;;4.00;4.00;;;;;;;;5044276;28;9054;-80
2021/12/29 02:22:33;;;;;;;;;4.00;4.00;;;;;;;;5041124;28;9144;-81
2021/12/29 02:25:19;;;;;;;;;4.67;4.00;;;;;;;;5042700;28;9012;-80
2021/12/29 02:27:49;;;;;;;;;12.00;3.33;;;;;;;;5040679;28;9096;-80
2021/12/29 02:30:18;;;;;;;;;4.00;3.00;;;;;;;;5039171;28;9096;-80
2021/12/29 02:32:46;;;;;;;;;3.67;2.00;;;;;;;;5043175;28;9112;-79
2021/12/29 02:35:15;;;;;;;;;7.33;3.00;;;;;;;;5044042;28;9220;-80
2021/12/29 02:37:44;;;;;;;;;9.33;4.00;;;;;;;;5043499;28;9254;-80
2021/12/29 02:40:12;;;;;;;;;6.00;3.33;;;;;;;;5030829;28;9202;-80
2021/12/29 02:42:42;;;;;;;;;2.33;2.00;;;;;;;;5039333;28;10263;-80
2021/12/29 02:45:12;;;;;;;;;5.33;3.00;;;;;;;;5045676;28;9308;-80
2021/12/29 02:47:40;;;;;;;;;5.33;3.00;;;;;;;;5045487;28;9130;-80
2021/12/29 02:50:08;;;;;;;;;2.00;2.00;;;;;;;;5043455;28;9180;-80
2021/12/29 02:52:36;;;;;;;;;2.00;2.00;;;;;;;;5043267;28;9107;-78
2021/12/29 02:55:05;;;;;;;;;3.00;1.33;;;;;;;;5041113;28;10072;-81
2021/12/29 02:57:32;;;;;;;;;5.67;3.33;;;;;;;;5044473;28;9113;-80
2021/12/29 03:00:00;;;;;;;;;5.00;2.67;;;;;;;;5044446;28;9238;-81
2021/12/29 03:02:27;;;;;;;;;6.00;3.33;;;;;;;;5044605;28;9306;-81
2021/12/29 03:04:58;;;;;;;;;3.33;3.00;;;;;;;;5044505;28;9430;-81
2021/12/29 03:07:25;;;;;;;;;4.00;2.33;;;;;;;;5045889;28;9111;-81
2021/12/29 03:09:53;;;;;;;;;6.67;3.33;;;;;;;;5040938;28;9340;-81
2021/12/29 03:12:26;;;;;;;;;9.00;3.00;;;;;;;;5040627;28;9413;-80
2021/12/29 03:14:56;;;;;;;;;4.33;2.33;;;;;;;;5039688;28;9255;-81
2021/12/29 03:17:23;;;;;;;;;5.00;3.00;;;;;;;;5045025;28;9368;-81
2021/12/29 03:19:51;;;;;;;;;7.00;4.33;;;;;;;;5044716;28;9370;-82
2021/12/29 03:22:18;;;;;;;;;2.00;2.00;;;;;;;;5043278;28;9328;-82
2021/12/29 03:24:46;;;;;;;;;4.67;3.00;;;;;;;;5044487;28;10134;-81
2021/12/29 03:27:13;;;;;;;;;6.00;2.67;;;;;;;;5042899;28;9372;-81
2021/12/29 03:29:42;;;;;;;;;8.00;2.00;;;;;;;;5044798;28;9864;-82
2021/12/29 03:32:20;;;;;;;;;6.67;2.33;;;;;;;;5043015;28;9153;-83
2021/12/29 03:34:47;;;;;;;;;7.00;2.33;;;;;;;;5043305;28;9286;-82
2021/12/29 03:37:14;;;;;;;;;4.33;2.00;;;;;;;;5042095;28;9248;-82
2021/12/29 03:39:41;;;;;;;;;3.33;2.00;;;;;;;;5043605;28;10116;-82
2021/12/29 03:42:09;;;;;;;;;9.00;3.00;;;;;;;;5037903;28;9323;-83
2021/12/29 03:44:37;;;;;;;;;4.67;3.00;;;;;;;;5038788;28;9351;-82
2021/12/29 03:47:06;;;;;;;;;3.00;2.00;;;;;;;;5044461;28;9359;-84
2021/12/29 03:49:33;;;;;;;;;8.00;3.00;;;;;;;;5042863;28;9278;-83
2021/12/29 03:52:00;;;;;;;;;6.67;3.67;;;;;;;;5038283;28;9360;-83
2021/12/29 03:54:28;;;;;;;;;7.00;3.00;;;;;;;;5037875;28;9481;-82
2021/12/29 03:56:55;;;;;;;;;3.33;2.00;;;;;;;;5044433;28;9390;-82
2021/12/29 03:59:22;;;;;;;;;5.33;3.00;;;;;;;;5041726;28;9478;-82
2021/12/29 04:01:52;;;;;;;;;6.33;3.67;;;;;;;;5038350;28;9215;-82
2021/12/29 04:04:21;;;;;;;;;4.67;2.67;;;;;;;;5045311;28;9364;-82
2021/12/29 04:06:49;;;;;;;;;4.00;3.00;;;;;;;;5037621;28;9351;-81
2021/12/29 04:09:18;;;;;;;;;1.00;1.00;;;;;;;;5039227;28;9423;-81
2021/12/29 04:11:50;;;;;;;;;4.00;2.67;;;;;;;;5043294;28;9338;-83
2021/12/29 04:14:18;;;;;;;;;2.67;2.00;;;;;;;;5043244;28;9301;-82
2021/12/29 04:16:47;;;;;;;;;1.00;1.00;;;;;;;;5044796;28;9290;-82
2021/12/29 04:19:29;;;;;;;;;3.67;3.33;;;;;;;;5041895;28;9530;-82
2021/12/29 04:21:59;;;;;;;;;6.00;3.00;;;;;;;;5043165;28;9425;-82
2021/12/29 04:24:26;;;;;;;;;4.00;3.67;;;;;;;;5028141;28;9416;-80
2021/12/29 04:26:54;;;;;;;;;6.00;2.00;;;;;;;;5043219;28;9398;-80
2021/12/29 04:29:21;;;;;;;;;3.50;2.00;;;;;;;;5041384;28;9510;-80
2021/12/29 04:31:49;;;;;;;;;3.00;3.00;;;;;;;;5032871;28;9526;-81
2021/12/29 04:34:16;;;;;;;;;8.25;4.00;;;;;;;;5043250;28;9486;-82
2021/12/29 04:36:43;;;;;;;;;6.50;4.00;;;;;;;;5034522;28;9606;-80
2021/12/29 04:39:12;;;;;;;;;2.25;2.25;;;;;;;;5036836;28;9575;-81
2021/12/29 04:41:39;;;;;;;;;4.25;3.00;;;;;;;;5034313;28;9724;-78
2021/12/29 04:44:07;;;;;;;;;2.00;2.00;;;;;;;;5035591;28;9583;-79
2021/12/29 04:46:39;;;;;;;;;7.25;3.00;;;;;;;;5038508;28;9489;-82
2021/12/29 04:49:09;;;;;;;;;4.25;2.25;;;;;;;;5036533;28;9485;-81
2021/12/29 04:51:43;;;;;;;;;6.00;2.00;;;;;;;;5043121;28;9573;-80
2021/12/29 04:54:12;;;;;;;;;1.50;1.50;;;;;;;;5038908;28;9540;-79
2021/12/29 04:56:40;;;;;;;;;8.00;4.00;;;;;;;;5031374;28;10363;-82
2021/12/29 04:59:08;;;;;;;;;7.75;3.00;;;;;;;;5042162;28;9804;-81
2021/12/29 05:01:36;;;;;;;;;6.00;4.00;;;;;;;;5042043;28;9624;-82
2021/12/29 05:04:04;;;;;;;;;3.00;3.00;;;;;;;;5040362;28;9708;-80
2021/12/29 05:09:18;;;;;;;;;6.00;3.00;;;;;;;;5036628;28;9458;-78
2021/12/29 05:11:46;;;;;;;;;4.00;4.00;;;;;;;;5037254;28;9562;-75
2021/12/29 05:14:14;;;;;;;;;4.50;3.50;;;;;;;;5045453;28;9657;-84
2021/12/29 05:16:41;;;;;;;;;12.00;5.25;;;;;;;;5044641;28;9481;-78
2021/12/29 05:19:08;;;;;;;;;6.50;3.00;;;;;;;;5042110;28;9587;-81
2021/12/29 05:21:36;;;;;;;;;5.00;3.25;;;;;;;;5038282;28;10366;-81
2021/12/29 05:24:03;;;;;;;;;8.00;4.50;;;;;;;;5039507;28;9650;-82
2021/12/29 05:26:32;;;;;;;;;5.00;5.00;;;;;;;;5036279;28;9842;-80
2021/12/29 05:28:59;;;;;;;;;7.25;6.00;;;;;;;;5033822;28;9713;-80
2021/12/29 05:31:27;;;;;;;;;7.00;6.00;;;;;;;;5037584;28;9687;-86
2021/12/29 05:33:54;;;;;;;;;9.75;7.00;;;;;;;;5039999;28;9928;-78
2021/12/29 05:36:22;;;;;;;;;9.00;7.00;;;;;;;;5041704;28;9674;-76
2021/12/29 05:38:49;;;;;;;;;9.75;7.50;;;;;;;;5039223;28;9883;-77
2021/12/29 05:41:16;;;;;;;;;10.50;7.75;;;;;;;;5038847;28;9772;-80
2021/12/29 05:43:45;;;;;;;;;8.25;6.75;;;;;;;;5030927;28;9789;-85
2021/12/29 05:46:12;;;;;;;;;3.75;2.75;;;;;;;;5044879;28;9814;-84
2021/12/29 05:48:40;;;;;;;;;7.50;6.50;;;;;;;;5044218;28;9799;-83
2021/12/29 05:51:07;;;;;;;;;9.50;6.25;;;;;;;;5036425;28;9677;-83
2021/12/29 05:53:35;;;;;;;;;6.50;4.50;;;;;;;;5033036;28;9764;-81
2021/12/29 05:56:02;;;;;;;;;7.00;2.25;;;;;;;;5040527;28;9724;-83
2021/12/29 05:58:30;;;;;;;;;3.00;3.00;;;;;;;;5045189;28;9642;-82
2021/12/29 06:00:58;;;;;;;;;5.00;5.00;;;;;;;;5039562;28;9505;-80
2021/12/29 06:03:26;;;;;;;;;5.00;4.00;;;;;;;;5046787;28;9765;-77
2021/12/29 06:05:53;;;;;;;;;4.00;4.00;;;;;;;;5045594;28;9693;-79
2021/12/29 06:08:21;;;;;;;;;5.00;1.25;;;;;;;;5040966;28;9735;-84
2021/12/29 06:10:48;;;;;;;;;7.00;2.75;;;;;;;;5042293;28;9555;-84
2021/12/29 06:13:16;;;;;;;;;3.75;3.75;;;;;;;;5039071;28;9704;-74
2021/12/29 06:15:43;;;;;;;;;6.00;3.50;;;;;;;;5045823;28;9635;-77
2021/12/29 06:18:12;;;;;;;;;3.75;3.00;;;;;;;;5063274;28;9762;-76
2021/12/29 06:20:40;;;;;;;;;3.75;3.25;;;;;;;;5045677;28;9786;-80
2021/12/29 06:23:07;;;;;;;;;3.75;2.50;;;;;;;;5041276;28;9732;-78
2021/12/29 06:25:35;;;;;;;;;5.00;3.25;;;;;;;;5041228;28;9584;-82
2021/12/29 06:28:03;;;;;;;;;8.00;4.00;;;;;;;;5040386;28;9549;-77
2021/12/29 06:30:30;;;;;;;;;4.25;2.00;;;;;;;;5041344;28;9606;-78
2021/12/29 06:32:57;;;;;;;;;5.50;2.25;;;;;;;;5045016;28;9495;-76
2021/12/29 06:35:26;;;;;;;;;3.00;3.00;;;;;;;;5043008;28;9612;-81
2021/12/29 06:37:54;;;;;;;;;3.25;3.25;;;;;;;;5042460;28;9590;-79
2021/12/29 06:40:21;;;;;;;;;4.50;2.50;;;;;;;;5043962;28;9635;-79
2021/12/29 06:42:48;;;;;;;;;8.00;5.00;;;;;;;;5039726;28;9653;-79
2021/12/29 06:45:16;;;;;;;;;5.00;2.75;;;;;;;;5045521;28;9644;-77
2021/12/29 06:47:43;;;;;;;;;6.00;4.00;;;;;;;;5039864;28;10565;-77
2021/12/29 06:50:11;;;;;;;;;8.25;4.00;;;;;;;;5042573;28;9667;-77
2021/12/29 06:52:40;;;;;;;;;3.75;3.00;;;;;;;;5037733;28;9636;-78
2021/12/29 06:55:08;;;;;;;;;7.00;4.00;;;;;;;;5039052;28;9646;-79
2021/12/29 06:57:36;;;;;;;;;6.00;2.50;;;;;;;;5041772;28;9775;-78
2021/12/29 07:00:06;;;;;;;;;4.25;2.25;;;;;;;;5043870;28;9565;-79
2021/12/29 07:02:33;;;;;;;;;5.00;4.50;;;;;;;;5044079;28;9682;-79
2021/12/29 07:05:00;;;;;;;;;6.25;6.25;;;;;;;;5042836;28;9716;-79
2021/12/29 07:07:28;;;;;;;;;8.50;5.75;;;;;;;;5044601;28;9958;-79
2021/12/29 07:09:57;;;;;;;;;7.75;7.75;;;;;;;;5041669;28;9872;-79
2021/12/29 07:12:24;;;;;;;;;7.25;7.25;;;;;;;;5041587;28;9924;-79
2021/12/29 07:14:53;;;;;;;;;6.50;6.50;;;;;;;;5035459;28;9886;-79
2021/12/29 07:17:21;;;;;;;;;8.00;4.00;;;;;;;;5043845;28;9649;-79
2021/12/29 07:19:48;;;;;;;;;6.00;6.00;;;;;;;;5040888;28;9724;-79
2021/12/29 07:22:15;;;;;;;;;6.75;6.75;;;;;;;;5031810;28;9723;-80
2021/12/29 07:24:43;;;;;;;;;4.50;4.50;;;;;;;;5041500;28;11185;-80
2021/12/29 07:27:12;;;;;;;;;6.75;3.00;;;;;;;;5039478;28;9809;-79
2021/12/29 07:29:39;;;;;;;;;7.75;6.00;;;;;;;;5043070;28;10513;-79
2021/12/29 07:32:07;;;;;;;;;4.00;4.00;;;;;;;;5043840;28;9669;-78
2021/12/29 07:34:34;;;;;;;;;6.25;6.25;;;;;;;;5041083;28;9723;-78
2021/12/29 07:37:01;;;;;;;;;10.75;7.25;;;;;;;;5035717;28;10192;-78
2021/12/29 07:39:29;;;;;;;;;4.50;4.50;;;;;;;;5037786;28;9927;-79
2021/12/29 07:41:56;;;;;;;;;7.50;6.00;;;;;;;;5034019;28;9857;-79
2021/12/29 07:44:27;;;;;;;;;6.25;5.50;;;;;;;;5031376;28;9910;-80
2021/12/29 07:46:57;;;;;;;;;6.00;6.00;;;;;;;;5036308;28;9767;-79
2021/12/29 07:49:25;;;;;;;;;6.25;6.00;;;;;;;;5036288;28;9930;-79
2021/12/29 07:51:53;;;;;;;;;12.75;7.00;;;;;;;;5031633;28;9792;-79
2021/12/29 07:54:21;;;;;;;;;8.25;6.75;;;;;;;;5019041;28;9816;-73
2021/12/29 07:56:49;;;;;;;;;6.00;6.00;;;;;;;;5036505;28;9815;-73
2021/12/29 07:59:16;;;;;;;;;6.00;6.00;;;;;;;;5041090;28;9724;-74
2021/12/29 08:01:45;;;;;;;;;11.25;3.25;;;;;;;;5036226;28;9730;-73
2021/12/29 08:04:14;;;;;;;;;4.50;4.50;;;;;;;;5043271;28;9576;-72
2021/12/29 08:06:42;;;;;;;;;4.50;4.50;;;;;;;;5025567;28;10069;-72
2021/12/29 08:09:09;;;;;;;;;6.75;6.75;;;;;;;;5037194;28;11107;-73
2021/12/29 08:11:37;;;;;;;;;3.75;3.75;;;;;;;;5023099;28;9565;-73
2021/12/29 08:14:04;;;;;;;;;7.50;4.00;;;;;;;;5034177;28;9596;-73
2021/12/29 08:16:32;;;;;;;;;9.00;7.00;;;;;;;;5036723;28;9639;-73
2021/12/29 08:19:02;;;;;;;;;13.00;8.00;;;;;;;;5038042;28;9741;-73
2021/12/29 08:21:29;;;;;;;;;3.00;3.00;;;;;;;;5043827;28;9665;-74
2021/12/29 08:23:56;;;;;;;;;3.75;3.75;;;;;;;;5035131;28;10201;-73
2021/12/29 08:26:24;;;;;;;;;2.00;2.00;;;;;;;;5033468;28;9448;-74
2021/12/29 08:28:51;;;;;;;;;6.00;3.75;;;;;;;;5032831;28;9342;-73
2021/12/29 08:31:19;;;;;;;;;3.00;1.33;;;;;;;;5042290;28;9450;-73
2021/12/29 08:33:53;;;;;;;;;2.00;2.00;;;;;;;;5032569;28;9447;-74
2021/12/29 08:36:23;;;;;;;;;3.33;3.33;;;;;;;;5031806;28;9321;-73
2021/12/29 08:38:50;;;;;;;;;0.00;0.00;;;;;;;;5025669;28;9404;-74
2021/12/29 08:41:17;;;;;;;;;4.00;2.00;;;;;;;;5029194;28;9530;-74
2021/12/29 08:43:47;;;;;;;;;1.00;1.00;;;;;;;;5031947;28;9332;-75
2021/12/29 08:46:15;;;;;;;;;3.25;3.00;;;;;;;;5040714;28;9446;-76
2021/12/29 08:58:52;;;;;;;;;1.00;1.00;;;;;;;;5031697;28;9439;-75
2021/12/29 09:01:20;;;;;;;;;1.00;1.00;;;;;;;;5031070;28;9298;-77
2021/12/29 09:03:48;;;;;;;;;1.67;1.67;;;;;;;;5032304;28;9401;-74
2021/12/29 09:06:17;;;;;;;;;6.00;3.00;;;;;;;;5029488;28;9334;-74
2021/12/29 09:08:46;;;;;;;;;8.00;3.75;;;;;;;;5036593;28;9490;-74
2021/12/29 09:11:16;;;;;;;;;3.00;3.00;;;;;;;;5033029;28;9533;-74
2021/12/29 09:13:45;;;;;;;;;3.00;3.00;;;;;;;;5032274;28;9351;-73
2021/12/29 09:16:15;;;;;;;;;2.00;2.00;;;;;;;;5027637;28;9494;-75
2021/12/29 09:18:42;;;;;;;;;2.00;2.00;;;;;;;;5040176;28;10241;-74
2021/12/29 09:21:15;;;;;;;;;2.00;2.00;;;;;;;;5039406;28;9463;-73
2021/12/29 09:23:43;;;;;;;;;3.67;3.67;;;;;;;;5040122;28;9452;-73
2021/12/29 09:26:16;;;;;;;;;2.00;2.00;;;;;;;;5043028;28;9406;-73
2021/12/29 09:28:45;;;;;;;;;3.25;3.25;;;;;;;;5042511;28;9431;-73
2021/12/29 09:31:15;;;;;;;;;4.00;4.00;;;;;;;;5038934;28;9435;-74
2021/12/29 09:33:44;;;;;;;;;3.75;3.75;;;;;;;;5031121;28;9406;-73
2021/12/29 09:36:12;;;;;;;;;6.00;6.00;;;;;;;;5037675;28;10512;-72
2021/12/29 09:38:40;;;;;;;;;6.50;6.50;;;;;;;;5037358;28;9782;-73
2021/12/29 09:41:22;;;;;;;;;7.00;7.00;;;;;;;;5042797;28;9490;-73
2021/12/29 09:43:53;;;;;;;;;9.50;8.50;;;;;;;;5040447;28;9567;-72
2021/12/29 09:46:29;;;;;;;;;6.00;6.00;;;;;;;;5043369;28;9572;-75
2021/12/29 09:48:57;;;;;;;;;6.75;6.75;;;;;;;;5039340;28;9584;-74
2021/12/29 09:51:29;;;;;;;;;7.00;7.00;;;;;;;;5042402;28;9409;-74
2021/12/29 09:54:00;;;;;;;;;6.25;6.25;;;;;;;;5041684;28;9477;-75
2021/12/29 09:56:28;;;;;;;;;7.50;7.50;;;;;;;;5042138;28;9714;-74
2021/12/29 09:58:55;;;;;;;;;6.00;6.00;;;;;;;;5044581;28;9651;-75
2021/12/29 10:01:24;;;;;;;;;7.00;7.00;;;;;;;;5034283;28;9375;-75
2021/12/29 10:03:52;;;;;;;;;7.00;7.00;;;;;;;;5036218;28;9510;-74
2021/12/29 10:06:19;;;;;;;;;9.00;8.00;;;;;;;;5034509;28;9510;-75
2021/12/29 10:08:49;;;;;;;;;7.00;7.00;;;;;;;;5037882;28;9421;-75
2021/12/29 10:11:19;;;;;;;;;7.00;4.00;;;;;;;;5038959;28;9576;-75
2021/12/29 10:13:48;;;;;;;;;6.00;6.00;;;;;;;;5038354;28;9268;-75
2021/12/29 10:16:19;;;;;;;;;7.00;7.00;;;;;;;;5034425;28;9377;-75
2021/12/29 10:18:54;;;;;;;;;7.00;7.00;;;;;;;;5037270;28;9355;-75
2021/12/29 10:21:26;;;;;;;;;9.33;6.00;;;;;;;;5044331;28;9343;-74
2021/12/29 10:23:56;;;;;;;;;6.00;6.00;;;;;;;;5033892;28;9326;-75
2021/12/29 10:26:25;;;;;;;;;7.67;7.67;;;;;;;;5040187;28;9402;-75
2021/12/29 10:29:02;;;;;;;;;4.00;4.00;;;;;;;;5043230;28;9271;-77
2021/12/29 10:31:40;;;;;;;;;8.67;7.00;;;;;;;;5034089;28;9130;-74
2021/12/29 10:34:12;;;;;;;;;5.00;5.00;;;;;;;;5038159;28;9270;-74
2021/12/29 10:36:43;;;;;;;;;1.00;1.00;;;;;;;;5042184;28;9057;-73
2021/12/29 10:39:12;;;;;;;;;3.00;3.00;;;;;;;;5041233;28;9756;-74
2021/12/29 10:41:49;;;;;;;;;4.67;4.67;;;;;;;;5035805;28;9009;-73
2021/12/29 10:44:23;;;;;;;;;5.33;4.00;;;;;;;;5037326;28;8959;-73
2021/12/29 10:46:52;;;;;;;;;6.33;4.00;;;;;;;;5019988;28;8985;-74
2021/12/29 10:49:21;;;;;;;;;6.33;6.33;;;;;;;;5044112;28;9014;-73
2021/12/29 10:51:48;;;;;;;;;4.25;4.25;;;;;;;;5040722;28;9167;-74
2021/12/29 10:54:19;;;;;;;;;4.00;4.00;;;;;;;;5042173;28;8900;-74
2021/12/29 10:57:00;;;;;;;;;4.50;4.50;;;;;;;;5039510;28;8959;-74
2021/12/29 10:59:41;;;;;;;;;5.25;5.25;;;;;;;;5043343;28;8861;-75
2021/12/29 11:02:09;;;;;;;;;6.67;4.67;;;;;;;;5033677;28;9604;-76
2021/12/29 11:04:39;;;;;;;;;5.50;5.50;;;;;;;;5031293;28;8966;-75
2021/12/29 11:07:08;;;;;;;;;5.25;5.25;;;;;;;;5044483;28;8849;-73
2021/12/29 11:09:38;;;;;;;;;4.50;4.50;;;;;;;;5040711;28;8858;-76
2021/12/29 11:12:11;;;;;;;;;6.75;6.75;;;;;;;;5045785;28;8994;-73
2021/12/29 11:14:42;;;;;;;;;6.00;6.00;;;;;;;;5031921;28;8882;-74
2021/12/29 11:17:14;;;;;;;;;5.00;5.00;;;;;;;;5032131;28;8897;-73
2021/12/29 11:19:51;;;;;;;;;4.00;4.00;;;;;;;;5038246;28;8868;-73
2021/12/29 11:22:26;;;;;;;;;4.50;3.75;;;;;;;;5041704;28;8896;-73
2021/12/29 11:24:58;;;;;;;;;4.50;4.50;;;;;;;;5039674;28;8869;-74
2021/12/29 11:27:27;;;;;;;;;6.50;6.50;;;;;;;;5030177;28;8881;-74
2021/12/29 11:29:58;;;;;;;;;3.00;3.00;;;;;;;;5041318;28;8872;-75
2021/12/29 11:32:28;;;;;;;;;4.00;4.00;;;;;;;;5038616;28;8802;-73
2021/12/29 11:35:12;;;;;;;;;0.75;0.25;;;;;;;;5036117;28;8873;-74
2021/12/29 11:37:42;;;;;;;;;3.00;3.00;;;;;;;;5037111;28;8896;-74
2021/12/29 11:40:10;;;;;;;;;2.00;2.00;;;;;;;;5035783;28;8880;-75
2021/12/29 11:42:40;;;;;;;;;2.25;2.00;;;;;;;;5038097;28;8900;-74
2021/12/29 11:45:09;;;;;;;;;3.00;3.00;;;;;;;;5033824;28;8881;-74
2021/12/29 11:47:37;;;;;;;;;2.00;2.00;;;;;;;;5036560;28;8874;-75
2021/12/29 11:50:08;;;;;;;;;3.25;3.25;;;;;;;;5032553;28;8872;-75
2021/12/29 11:53:04;;;;;;;;;4.00;4.00;;;;;;;;5042145;28;8861;-73
2021/12/29 11:55:33;;;;;;;;;2.75;2.75;;;;;;;;5031191;28;8914;-77
2021/12/29 11:58:10;;;;;;;;;3.00;3.00;;;;;;;;5041868;28;8889;-74
2021/12/29 12:00:38;;;;;;;;;3.00;3.00;;;;;;;;5027986;28;8801;-74
2021/12/29 12:03:10;;;;;;;;;2.00;2.00;;;;;;;;5035901;28;9011;-74
2021/12/29 12:05:47;;;;;;;;;2.00;2.00;;;;;;;;5039286;28;8877;-72
2021/12/29 12:08:17;;;;;;;;;3.50;2.00;;;;;;;;5041449;28;9010;-73
2021/12/29 12:10:45;;;;;;;;;2.00;2.00;;;;;;;;5026081;28;8886;-73
2021/12/29 12:13:24;;;;;;;;;0.00;0.00;;;;;;;;5040580;28;8984;-73
2021/12/29 12:15:54;;;;;;;;;0.75;0.75;;;;;;;;5043601;28;8876;-74
2021/12/29 12:18:22;;;;;;;;;2.25;1.00;;;;;;;;5038007;28;8866;-76
2021/12/29 12:20:51;;;;;;;;;1.00;1.00;;;;;;;;5033333;28;8838;-74
2021/12/29 12:23:28;;;;;;;;;0.25;0.25;;;;;;;;5040187;28;8861;-74
2021/12/29 12:25:56;;;;;;;;;0.50;0.50;;;;;;;;5040015;28;8857;-75
2021/12/29 12:28:25;;;;;;;;;0.25;0.25;;;;;;;;5039403;28;8979;-75
2021/12/29 12:30:55;;;;;;;;;1.00;1.00;;;;;;;;5040802;28;8793;-74
2021/12/29 12:33:26;;;;;;;;;2.00;1.25;;;;;;;;5039787;28;8968;-75
2021/12/29 12:35:56;;;;;;;;;1.00;1.00;;;;;;;;5034274;28;9691;-74
2021/12/29 12:38:27;;;;;;;;;1.00;1.00;;;;;;;;5042191;28;8877;-73
2021/12/29 12:41:03;;;;;;;;;1.75;1.00;;;;;;;;5035746;28;9769;-73
2021/12/29 12:43:31;;;;;;;;;1.00;1.00;;;;;;;;5042721;28;8841;-75
2021/12/29 12:45:58;;;;;;;;;1.00;1.00;;;;;;;;5037710;28;8873;-75
2021/12/29 12:48:28;;;;;;;;;2.00;1.00;;;;;;;;5039695;28;8911;-74
2021/12/29 12:50:58;;;;;;;;;0.50;0.50;;;;;;;;5038560;28;8842;-76
2021/12/29 12:53:30;;;;;;;;;0.00;0.00;;;;;;;;5036204;28;8874;-75
2021/12/29 12:55:58;;;;;;;;;0.00;0.00;;;;;;;;5041819;28;8911;-74
2021/12/29 12:58:28;;;;;;;;;0.00;0.00;;;;;;;;5038542;28;8876;-72
2021/12/29 13:01:01;;;;;;;;;0.00;0.00;;;;;;;;5039169;28;8861;-74
2021/12/29 13:03:29;;;;;;;;;0.00;0.00;;;;;;;;5037724;28;8865;-73
2021/12/29 13:05:59;;;;;;;;;0.00;0.00;;;;;;;;5037158;28;8864;-74
2021/12/29 13:08:29;;;;;;;;;1.00;1.00;;;;;;;;5034943;28;9556;-73
2021/12/29 13:11:02;;;;;;;;;0.00;0.00;;;;;;;;5033094;28;8891;-75
2021/12/29 13:13:33;;;;;;;;;1.00;1.00;;;;;;;;5038087;28;9008;-76
2021/12/29 13:16:01;;;;;;;;;0.00;0.00;;;;;;;;5034879;28;8899;-75
2021/12/29 13:18:29;;;;;;;;;0.00;0.00;;;;;;;;5040915;28;8869;-74
2021/12/29 13:20:59;;;;;;;;;0.75;0.75;;;;;;;;5039356;28;8861;-73
2021/12/29 13:23:27;;;;;;;;;0.25;0.25;;;;;;;;5039848;28;8907;-71
2021/12/29 13:25:57;;;;;;;;;1.00;1.00;;;;;;;;5039794;28;8891;-71
2021/12/29 13:28:26;;;;;;;;;0.50;0.50;;;;;;;;5040064;28;9709;-71
2021/12/29 13:30:56;;;;;;;;;0.00;0.00;;;;;;;;5039631;28;8857;-73
2021/12/29 13:33:24;;;;;;;;;0.75;0.75;;;;;;;;5038626;28;8869;-72
2021/12/29 13:35:54;;;;;;;;;1.00;1.00;;;;;;;;5040049;28;8891;-73
2021/12/29 13:38:25;;;;;;;;;0.50;0.50;;;;;;;;5041270;28;8869;-73
2021/12/29 13:40:54;;;;;;;;;0.00;0.00;;;;;;;;5037306;28;8897;-72
2021/12/29 13:43:24;;;;;;;;;1.50;1.50;;;;;;;;5040206;28;8980;-73
2021/12/29 13:45:55;;;;;;;;;1.00;1.00;;;;;;;;5039725;28;8881;-77
2021/12/29 13:48:24;;;;;;;;;0.75;0.75;;;;;;;;5036112;28;8872;-74
2021/12/29 13:50:57;;;;;;;;;0.75;0.00;;;;;;;;5036860;28;8876;-74
2021/12/29 13:53:27;;;;;;;;;1.25;0.00;;;;;;;;5028785;28;8877;-75
2021/12/29 13:55:56;;;;;;;;;0.25;0.25;;;;;;;;5036096;28;8884;-72
2021/12/29 13:58:25;;;;;;;;;1.00;1.00;;;;;;;;5040692;28;9015;-75
2021/12/29 14:00:52;;;;;;;;;0.00;0.00;;;;;;;;5035018;28;8812;-73
2021/12/29 14:03:19;;;;;;;;;0.00;0.00;;;;;;;;5036940;28;9681;-73
2021/12/29 14:05:48;;;;;;;;;0.50;0.50;;;;;;;;5037625;28;8865;-75
2021/12/29 14:08:16;;;;;;;;;3.00;1.00;;;;;;;;5043137;28;8857;-75
2021/12/29 14:10:46;;;;;;;;;2.25;1.00;;;;;;;;5038188;28;8876;-73
2021/12/29 14:13:16;;;;;;;;;1.00;1.00;;;;;;;;5042638;28;8882;-73
2021/12/29 14:15:47;;;;;;;;;1.50;1.50;;;;;;;;5040523;28;8894;-73
2021/12/29 14:18:20;;;;;;;;;2.00;2.00;;;;;;;;5038643;28;8900;-74
2021/12/29 14:20:49;;;;;;;;;2.50;1.50;;;;;;;;5044910;28;8935;-76
2021/12/29 14:23:16;;;;;;;;;2.25;2.25;;;;;;;;5041046;28;8973;-76
2021/12/29 14:25:46;;;;;;;;;2.00;2.00;;;;;;;;5042815;28;8971;-79
2021/12/29 14:28:20;;;;;;;;;2.50;1.00;;;;;;;;5038824;28;8857;-75
2021/12/29 14:30:59;;;;;;;;;1.00;1.00;;;;;;;;5038715;28;8953;-73
2021/12/29 14:33:36;;;;;;;;;0.00;0.00;;;;;;;;5042986;28;8890;-73
2021/12/29 14:36:05;;;;;;;;;0.25;0.25;;;;;;;;5032074;28;8848;-73
2021/12/29 14:38:33;;;;;;;;;1.00;1.00;;;;;;;;5045588;28;8877;-74
2021/12/29 14:41:01;;;;;;;;;0.25;0.25;;;;;;;;5045549;28;9715;-74
2021/12/29 14:43:30;;;;;;;;;0.00;0.00;;;;;;;;5025458;28;8882;-73
2021/12/29 14:46:00;;;;;;;;;1.00;1.00;;;;;;;;5035478;28;8900;-73
2021/12/29 14:48:28;;;;;;;;;0.00;0.00;;;;;;;;5042383;28;8865;-73
2021/12/29 14:50:56;;;;;;;;;0.25;0.25;;;;;;;;5029205;28;8856;-72
2021/12/29 14:53:25;;;;;;;;;0.00;0.00;;;;;;;;5042257;28;8881;-75
2021/12/29 14:55:53;;;;;;;;;0.00;0.00;;;;;;;;5038395;28;8885;-76
2021/12/29 14:58:26;;;;;;;;;0.00;0.00;;;;;;;;5040328;28;8877;-76
2021/12/29 15:01:03;;;;;;;;;0.25;0.25;;;;;;;;5033469;28;8852;-74
2021/12/29 15:03:30;;;;;;;;;1.00;1.00;;;;;;;;5035177;28;8854;-75
2021/12/29 15:05:58;;;;;;;;;0.75;0.75;;;;;;;;5034608;28;8852;-75
2021/12/29 15:08:27;;;;;;;;;0.00;0.00;;;;;;;;5036659;28;8865;-74
2021/12/29 15:10:57;;;;;;;;;0.00;0.00;;;;;;;;5039296;28;9002;-74
2021/12/29 15:13:31;;;;;;;;;0.00;0.00;;;;;;;;5033018;28;8874;-73
2021/12/29 15:16:02;;;;;;;;;0.00;0.00;;;;;;;;5041613;28;8889;-72
2021/12/29 15:18:31;;;;;;;;;0.00;0.00;;;;;;;;5041938;28;8865;-76
2021/12/29 15:21:01;;;;;;;;;0.75;0.00;;;;;;;;5039824;28;8869;-74